sensor_id;sensor_type;location;lat;lon;timestamp;pressure;altitude;pressure_sealevel;temperature;humidity
73566;BME280;61846;52.970;-3.168;2024-03-17T00:01:31;100388.28;;;13.06;58.16
73566;BME280;61846;52.970;-3.168;2024-03-17T00:03:57;100391.50;;;13.19;57.29
73566;BME280;61846;52.970;-3.168;2024-03-17T00:06:22;100386.68;;;13.49;55.64
73566;BME280;61846;52.970;-3.168;2024-03-17T00:08:48;100384.13;;;13.36;56.25
73566;BME280;61846;52.970;-3.168;2024-03-17T00:11:13;100381.48;;;12.58;58.45
73566;BME280;61846;52.970;-3.168;2024-03-17T00:13:39;100375.29;;;13.13;57.66
73566;BME280;61846;52.970;-3.168;2024-03-17T00:16:05;100373.14;;;13.22;58.32
73566;BME280;61846;52.970;-3.168;2024-03-17T00:18:29;100366.90;;;12.54;59.44
73566;BME280;61846;52.970;-3.168;2024-03-17T00:20:55;100364.17;;;13.59;57.53
73566;BME280;61846;52.970;-3.168;2024-03-17T00:23:20;100361.05;;;13.55;56.59
73566;BME280;61846;52.970;-3.168;2024-03-17T00:25:45;100358.09;;;13.63;56.47
73566;BME280;61846;52.970;-3.168;2024-03-17T00:28:11;100351.98;;;13.64;55.87
73566;BME280;61846;52.970;-3.168;2024-03-17T00:30:36;100350.38;;;13.61;55.74
73566;BME280;61846;52.970;-3.168;2024-03-17T00:33:02;100352.55;;;13.31;56.28
73566;BME280;61846;52.970;-3.168;2024-03-17T00:35:27;100352.90;;;13.61;56.55
73566;BME280;61846;52.970;-3.168;2024-03-17T00:37:52;100350.01;;;13.68;55.88
73566;BME280;61846;52.970;-3.168;2024-03-17T00:40:18;100353.00;;;13.54;55.74
73566;BME280;61846;52.970;-3.168;2024-03-17T00:42:44;100345.91;;;13.68;55.52
73566;BME280;61846;52.970;-3.168;2024-03-17T00:45:10;100346.20;;;13.24;56.77
73566;BME280;61846;52.970;-3.168;2024-03-17T00:47:34;100348.64;;;13.40;56.69
73566;BME280;61846;52.970;-3.168;2024-03-17T00:50:00;100346.17;;;13.99;55.98
73566;BME280;61846;52.970;-3.168;2024-03-17T00:52:26;100351.01;;;13.12;58.07
73566;BME280;61846;52.970;-3.168;2024-03-17T00:54:51;100347.45;;;13.44;56.00
73566;BME280;61846;52.970;-3.168;2024-03-17T00:57:17;100350.59;;;13.27;57.30
73566;BME280;61846;52.970;-3.168;2024-03-17T00:59:43;100345.62;;;12.92;58.53
73566;BME280;61846;52.970;-3.168;2024-03-17T01:02:08;100348.18;;;12.84;59.05
73566;BME280;61846;52.970;-3.168;2024-03-17T01:04:33;100342.49;;;13.64;57.46
73566;BME280;61846;52.970;-3.168;2024-03-17T01:06:59;100340.18;;;13.68;56.30
73566;BME280;61846;52.970;-3.168;2024-03-17T01:09:24;100338.35;;;12.63;58.63
73566;BME280;61846;52.970;-3.168;2024-03-17T01:11:50;100333.62;;;13.65;57.74
73566;BME280;61846;52.970;-3.168;2024-03-17T01:14:16;100331.75;;;13.67;56.74
73566;BME280;61846;52.970;-3.168;2024-03-17T01:16:41;100333.06;;;13.76;56.60
73566;BME280;61846;52.970;-3.168;2024-03-17T01:19:07;100333.86;;;10.58;67.69
73566;BME280;61846;52.970;-3.168;2024-03-17T01:21:32;100333.09;;;11.83;65.39
73566;BME280;61846;52.970;-3.168;2024-03-17T01:23:58;100337.73;;;9.58;74.92
73566;BME280;61846;52.970;-3.168;2024-03-17T01:26:23;100340.16;;;11.57;69.04
73566;BME280;61846;52.970;-3.168;2024-03-17T01:28:49;100333.30;;;13.10;63.83
73566;BME280;61846;52.970;-3.168;2024-03-17T01:31:14;100327.45;;;12.24;65.34
73566;BME280;61846;52.970;-3.168;2024-03-17T01:33:40;100323.73;;;13.29;62.52
73566;BME280;61846;52.970;-3.168;2024-03-17T01:36:06;100315.55;;;13.66;60.60
73566;BME280;61846;52.970;-3.168;2024-03-17T01:38:31;100313.63;;;11.73;66.75
73566;BME280;61846;52.970;-3.168;2024-03-17T01:40:56;100303.37;;;11.87;66.34
73566;BME280;61846;52.970;-3.168;2024-03-17T01:43:22;100305.63;;;12.59;64.01
73566;BME280;61846;52.970;-3.168;2024-03-17T01:45:47;100295.18;;;13.34;62.21
73566;BME280;61846;52.970;-3.168;2024-03-17T01:48:14;100291.86;;;14.04;59.78
73566;BME280;61846;52.970;-3.168;2024-03-17T01:50:39;100297.83;;;13.85;59.26
73566;BME280;61846;52.970;-3.168;2024-03-17T01:53:06;100304.76;;;11.53;66.90
73566;BME280;61846;52.970;-3.168;2024-03-17T01:55:29;100299.76;;;11.92;66.81
73566;BME280;61846;52.970;-3.168;2024-03-17T01:57:55;100292.92;;;12.68;63.65
73566;BME280;61846;52.970;-3.168;2024-03-17T02:00:21;100284.05;;;13.41;62.15
73566;BME280;61846;52.970;-3.168;2024-03-17T02:02:46;100282.03;;;11.59;66.67
73566;BME280;61846;52.970;-3.168;2024-03-17T02:05:12;100287.01;;;9.85;72.85
73566;BME280;61846;52.970;-3.168;2024-03-17T02:07:37;100284.71;;;11.39;68.78
73566;BME280;61846;52.970;-3.168;2024-03-17T02:10:03;100269.55;;;12.49;65.04
73566;BME280;61846;52.970;-3.168;2024-03-17T02:12:28;100264.20;;;11.63;67.47
73566;BME280;61846;52.970;-3.168;2024-03-17T02:14:53;100262.06;;;11.61;66.46
73566;BME280;61846;52.970;-3.168;2024-03-17T02:17:19;100266.05;;;12.84;64.49
73566;BME280;61846;52.970;-3.168;2024-03-17T02:19:44;100260.37;;;11.61;66.96
73566;BME280;61846;52.970;-3.168;2024-03-17T02:22:13;100260.32;;;11.00;67.88
73566;BME280;61846;52.970;-3.168;2024-03-17T02:24:35;100253.28;;;13.37;62.54
73566;BME280;61846;52.970;-3.168;2024-03-17T02:27:01;100248.82;;;14.18;58.95
73566;BME280;61846;52.970;-3.168;2024-03-17T02:29:26;100246.68;;;14.09;58.85
73566;BME280;61846;52.970;-3.168;2024-03-17T02:31:52;100240.12;;;14.62;57.49
73566;BME280;61846;52.970;-3.168;2024-03-17T02:34:17;100244.93;;;11.56;64.71
73566;BME280;61846;52.970;-3.168;2024-03-17T02:36:43;100240.48;;;12.00;64.42
73566;BME280;61846;52.970;-3.168;2024-03-17T02:39:08;100237.76;;;14.23;58.61
73566;BME280;61846;52.970;-3.168;2024-03-17T02:41:34;100241.96;;;14.41;58.10
73566;BME280;61846;52.970;-3.168;2024-03-17T02:43:59;100241.62;;;14.72;57.39
73566;BME280;61846;52.970;-3.168;2024-03-17T02:46:25;100239.76;;;14.99;56.18
73566;BME280;61846;52.970;-3.168;2024-03-17T02:48:52;100241.16;;;15.26;54.92
73566;BME280;61846;52.970;-3.168;2024-03-17T02:51:20;100243.84;;;15.43;54.23
73566;BME280;61846;52.970;-3.168;2024-03-17T02:53:41;100234.45;;;15.16;54.90
73566;BME280;61846;52.970;-3.168;2024-03-17T02:56:06;100235.21;;;15.47;54.25
73566;BME280;61846;52.970;-3.168;2024-03-17T02:58:32;100229.09;;;15.06;54.80
73566;BME280;61846;52.970;-3.168;2024-03-17T03:00:57;100221.47;;;14.18;58.19
73566;BME280;61846;52.970;-3.168;2024-03-17T03:03:23;100225.61;;;14.38;57.47
73566;BME280;61846;52.970;-3.168;2024-03-17T03:05:48;100223.27;;;13.05;61.86
73566;BME280;61846;52.970;-3.168;2024-03-17T03:08:13;100218.39;;;12.76;63.43
73566;BME280;61846;52.970;-3.168;2024-03-17T03:10:43;100214.21;;;14.15;58.71
73566;BME280;61846;52.970;-3.168;2024-03-17T03:13:04;100222.88;;;11.54;65.63
73566;BME280;61846;52.970;-3.168;2024-03-17T03:15:31;100216.85;;;11.19;67.47
73566;BME280;61846;52.970;-3.168;2024-03-17T03:17:55;100206.44;;;11.52;65.42
73566;BME280;61846;52.970;-3.168;2024-03-17T03:20:21;100207.15;;;12.17;62.87
73566;BME280;61846;52.970;-3.168;2024-03-17T03:22:46;100209.07;;;13.77;58.63
73566;BME280;61846;52.970;-3.168;2024-03-17T03:25:12;100212.27;;;14.58;57.22
73566;BME280;61846;52.970;-3.168;2024-03-17T03:27:37;100211.19;;;13.71;59.52
73566;BME280;61846;52.970;-3.168;2024-03-17T03:30:03;100214.15;;;13.16;59.58
73566;BME280;61846;52.970;-3.168;2024-03-17T03:32:28;100216.18;;;10.66;66.49
73566;BME280;61846;52.970;-3.168;2024-03-17T03:34:53;100204.66;;;13.01;61.35
73566;BME280;61846;52.970;-3.168;2024-03-17T03:37:19;100203.16;;;14.42;57.61
73566;BME280;61846;52.970;-3.168;2024-03-17T03:39:45;100203.68;;;13.45;58.40
73566;BME280;61846;52.970;-3.168;2024-03-17T03:42:10;100207.42;;;14.69;55.91
73566;BME280;61846;52.970;-3.168;2024-03-17T03:44:35;100208.51;;;14.99;55.29
73566;BME280;61846;52.970;-3.168;2024-03-17T03:47:01;100206.03;;;14.38;55.40
73566;BME280;61846;52.970;-3.168;2024-03-17T03:49:26;100196.83;;;13.20;58.97
73566;BME280;61846;52.970;-3.168;2024-03-17T03:51:52;100197.04;;;14.23;57.34
73566;BME280;61846;52.970;-3.168;2024-03-17T03:54:17;100193.75;;;13.20;59.14
73566;BME280;61846;52.970;-3.168;2024-03-17T03:56:43;100199.41;;;12.50;62.43
73566;BME280;61846;52.970;-3.168;2024-03-17T03:59:08;100200.02;;;14.84;56.34
73566;BME280;61846;52.970;-3.168;2024-03-17T04:01:34;100190.55;;;14.77;55.60
73566;BME280;61846;52.970;-3.168;2024-03-17T04:03:59;100194.63;;;15.45;53.91
73566;BME280;61846;52.970;-3.168;2024-03-17T04:06:25;100192.31;;;15.13;54.64
73566;BME280;61846;52.970;-3.168;2024-03-17T04:08:50;100189.93;;;15.56;53.55
73566;BME280;61846;52.970;-3.168;2024-03-17T04:11:15;100193.05;;;15.34;53.89
73566;BME280;61846;52.970;-3.168;2024-03-17T04:13:41;100190.22;;;15.27;53.77
73566;BME280;61846;52.970;-3.168;2024-03-17T04:16:07;100189.29;;;15.10;53.83
73566;BME280;61846;52.970;-3.168;2024-03-17T04:18:32;100188.47;;;15.06;52.81
73566;BME280;61846;52.970;-3.168;2024-03-17T04:21:01;100189.93;;;15.77;52.45
73566;BME280;61846;52.970;-3.168;2024-03-17T04:23:23;100189.76;;;15.53;52.81
73566;BME280;61846;52.970;-3.168;2024-03-17T04:25:50;100192.41;;;14.42;54.25
73566;BME280;61846;52.970;-3.168;2024-03-17T04:28:14;100183.65;;;14.70;54.77
73566;BME280;61846;52.970;-3.168;2024-03-17T04:30:40;100189.54;;;12.89;59.19
73566;BME280;61846;52.970;-3.168;2024-03-17T04:33:05;100189.87;;;11.62;63.06
73566;BME280;61846;52.970;-3.168;2024-03-17T04:35:30;100182.56;;;13.35;59.40
73566;BME280;61846;52.970;-3.168;2024-03-17T04:37:56;100171.33;;;14.42;55.95
73566;BME280;61846;52.970;-3.168;2024-03-17T04:40:21;100168.41;;;14.33;56.78
73566;BME280;61846;52.970;-3.168;2024-03-17T04:42:47;100163.49;;;14.84;54.90
73566;BME280;61846;52.970;-3.168;2024-03-17T04:45:12;100162.39;;;13.05;58.90
73566;BME280;61846;52.970;-3.168;2024-03-17T04:47:38;100161.34;;;13.41;58.50
73566;BME280;61846;52.970;-3.168;2024-03-17T04:50:04;100163.97;;;13.87;58.17
73566;BME280;61846;52.970;-3.168;2024-03-17T04:52:28;100153.63;;;12.59;60.69
73566;BME280;61846;52.970;-3.168;2024-03-17T04:54:54;100152.61;;;11.76;63.88
73566;BME280;61846;52.970;-3.168;2024-03-17T04:57:19;100143.79;;;12.95;60.49
73566;BME280;61846;52.970;-3.168;2024-03-17T04:59:45;100149.69;;;11.17;64.99
73566;BME280;61846;52.970;-3.168;2024-03-17T05:02:10;100142.37;;;12.72;62.56
73566;BME280;61846;52.970;-3.168;2024-03-17T05:04:36;100141.30;;;11.88;64.34
73566;BME280;61846;52.970;-3.168;2024-03-17T05:07:02;100138.81;;;11.80;64.09
73566;BME280;61846;52.970;-3.168;2024-03-17T05:09:27;100149.80;;;9.31;72.61
73566;BME280;61846;52.970;-3.168;2024-03-17T05:11:52;100141.48;;;11.57;66.99
73566;BME280;61846;52.970;-3.168;2024-03-17T05:14:18;100132.09;;;11.85;65.22
73566;BME280;61846;52.970;-3.168;2024-03-17T05:16:43;100133.62;;;12.84;61.33
73566;BME280;61846;52.970;-3.168;2024-03-17T05:19:09;100137.66;;;10.98;65.37
73566;BME280;61846;52.970;-3.168;2024-03-17T05:21:34;100134.85;;;12.58;62.91
73566;BME280;61846;52.970;-3.168;2024-03-17T05:24:01;100141.10;;;12.78;61.75
73566;BME280;61846;52.970;-3.168;2024-03-17T05:26:26;100148.61;;;11.99;63.15
73566;BME280;61846;52.970;-3.168;2024-03-17T05:28:51;100148.10;;;11.88;64.44
73566;BME280;61846;52.970;-3.168;2024-03-17T05:31:16;100150.96;;;13.03;61.48
73566;BME280;61846;52.970;-3.168;2024-03-17T05:33:42;100147.86;;;11.84;62.85
73566;BME280;61846;52.970;-3.168;2024-03-17T05:36:07;100148.67;;;12.93;60.54
73566;BME280;61846;52.970;-3.168;2024-03-17T05:38:33;100143.74;;;13.43;59.69
73566;BME280;61846;52.970;-3.168;2024-03-17T05:40:59;100141.47;;;13.28;58.14
73566;BME280;61846;52.970;-3.168;2024-03-17T05:43:24;100141.30;;;13.56;58.29
73566;BME280;61846;52.970;-3.168;2024-03-17T05:45:50;100141.36;;;13.26;58.62
73566;BME280;61846;52.970;-3.168;2024-03-17T05:48:15;100138.84;;;12.04;61.10
73566;BME280;61846;52.970;-3.168;2024-03-17T05:50:41;100136.89;;;11.93;61.75
73566;BME280;61846;52.970;-3.168;2024-03-17T05:53:06;100130.52;;;12.49;62.14
73566;BME280;61846;52.970;-3.168;2024-03-17T05:55:34;100127.37;;;10.76;66.75
73566;BME280;61846;52.970;-3.168;2024-03-17T05:57:57;100119.49;;;10.96;65.56
73566;BME280;61846;52.970;-3.168;2024-03-17T06:00:22;100108.39;;;12.10;62.15
73566;BME280;61846;52.970;-3.168;2024-03-17T06:02:48;100115.49;;;11.45;63.53
73566;BME280;61846;52.970;-3.168;2024-03-17T06:05:13;100122.07;;;12.96;59.55
73566;BME280;61846;52.970;-3.168;2024-03-17T06:07:39;100124.47;;;10.86;66.04
73566;BME280;61846;52.970;-3.168;2024-03-17T06:10:05;100119.02;;;12.63;61.83
73566;BME280;61846;52.970;-3.168;2024-03-17T06:12:30;100119.99;;;12.31;61.29
73566;BME280;61846;52.970;-3.168;2024-03-17T06:14:55;100118.93;;;13.16;59.19
73566;BME280;61846;52.970;-3.168;2024-03-17T06:17:21;100123.08;;;11.82;61.99
73566;BME280;61846;52.970;-3.168;2024-03-17T06:19:46;100127.82;;;12.62;59.72
73566;BME280;61846;52.970;-3.168;2024-03-17T06:22:12;100134.22;;;14.28;55.82
73566;BME280;61846;52.970;-3.168;2024-03-17T06:24:37;100128.54;;;14.74;54.55
73566;BME280;61846;52.970;-3.168;2024-03-17T06:27:03;100134.00;;;12.93;57.78
73566;BME280;61846;52.970;-3.168;2024-03-17T06:29:28;100134.32;;;13.26;57.86
73566;BME280;61846;52.970;-3.168;2024-03-17T06:31:54;100135.18;;;14.15;54.98
73566;BME280;61846;52.970;-3.168;2024-03-17T06:34:19;100122.83;;;14.92;53.99
73566;BME280;61846;52.970;-3.168;2024-03-17T06:36:47;100117.00;;;14.53;53.57
73566;BME280;61846;52.970;-3.168;2024-03-17T06:39:10;100124.21;;;14.75;53.77
73566;BME280;61846;52.970;-3.168;2024-03-17T06:41:36;100124.64;;;14.05;54.18
73566;BME280;61846;52.970;-3.168;2024-03-17T06:44:01;100120.79;;;12.49;58.23
73566;BME280;61846;52.970;-3.168;2024-03-17T06:46:26;100118.07;;;11.68;63.49
73566;BME280;61846;52.970;-3.168;2024-03-17T06:48:52;100111.59;;;13.32;58.02
73566;BME280;61846;52.970;-3.168;2024-03-17T06:51:17;100107.09;;;13.94;56.14
73566;BME280;61846;52.970;-3.168;2024-03-17T06:53:43;100121.36;;;10.70;64.16
73566;BME280;61846;52.970;-3.168;2024-03-17T06:56:08;100115.33;;;11.98;61.17
73566;BME280;61846;52.970;-3.168;2024-03-17T06:58:34;100117.54;;;12.47;59.39
73566;BME280;61846;52.970;-3.168;2024-03-17T07:01:00;100114.87;;;13.86;55.89
73566;BME280;61846;52.970;-3.168;2024-03-17T07:03:25;100109.36;;;14.64;53.93
73566;BME280;61846;52.970;-3.168;2024-03-17T07:05:52;100117.07;;;14.35;53.68
73566;BME280;61846;52.970;-3.168;2024-03-17T07:08:16;100129.12;;;10.71;64.39
73566;BME280;61846;52.970;-3.168;2024-03-17T07:10:41;100129.44;;;11.48;63.47
73566;BME280;61846;52.970;-3.168;2024-03-17T07:13:07;100127.85;;;13.61;57.32
73566;BME280;61846;52.970;-3.168;2024-03-17T07:15:32;100130.00;;;14.35;55.06
73566;BME280;61846;52.970;-3.168;2024-03-17T07:17:58;100131.22;;;14.51;54.53
73566;BME280;61846;52.970;-3.168;2024-03-17T07:20:23;100132.85;;;12.64;59.01
73566;BME280;61846;52.970;-3.168;2024-03-17T07:22:49;100130.07;;;12.88;58.49
73566;BME280;61846;52.970;-3.168;2024-03-17T07:25:14;100125.77;;;13.23;56.69
73566;BME280;61846;52.970;-3.168;2024-03-17T07:27:40;100127.08;;;13.90;55.10
73566;BME280;61846;52.970;-3.168;2024-03-17T07:30:07;100123.79;;;14.43;53.71
73566;BME280;61846;52.970;-3.168;2024-03-17T07:32:32;100116.03;;;14.81;52.36
73566;BME280;61846;52.970;-3.168;2024-03-17T07:34:56;100114.31;;;14.87;51.81
73566;BME280;61846;52.970;-3.168;2024-03-17T07:37:21;100114.57;;;15.44;51.74
73566;BME280;61846;52.970;-3.168;2024-03-17T07:39:47;100114.81;;;15.28;51.70
73566;BME280;61846;52.970;-3.168;2024-03-17T07:42:12;100116.69;;;13.98;54.08
73566;BME280;61846;52.970;-3.168;2024-03-17T07:44:38;100124.93;;;10.77;64.33
73566;BME280;61846;52.970;-3.168;2024-03-17T07:47:04;100117.33;;;13.66;57.80
73566;BME280;61846;52.970;-3.168;2024-03-17T07:49:29;100119.88;;;13.22;57.53
73566;BME280;61846;52.970;-3.168;2024-03-17T07:51:54;100123.25;;;14.06;55.42
73566;BME280;61846;52.970;-3.168;2024-03-17T07:54:20;100127.38;;;14.23;54.45
73566;BME280;61846;52.970;-3.168;2024-03-17T07:56:45;100134.74;;;12.07;60.43
73566;BME280;61846;52.970;-3.168;2024-03-17T07:59:11;100136.20;;;11.72;62.84
73566;BME280;61846;52.970;-3.168;2024-03-17T08:01:36;100133.59;;;13.08;59.42
73566;BME280;61846;52.970;-3.168;2024-03-17T08:04:02;100131.67;;;12.75;59.59
73566;BME280;61846;52.970;-3.168;2024-03-17T08:06:27;100138.39;;;13.41;57.56
73566;BME280;61846;52.970;-3.168;2024-03-17T08:08:53;100141.81;;;14.56;55.47
73566;BME280;61846;52.970;-3.168;2024-03-17T08:11:18;100139.93;;;14.98;53.76
73566;BME280;61846;52.970;-3.168;2024-03-17T08:13:43;100139.03;;;14.89;53.84
73566;BME280;61846;52.970;-3.168;2024-03-17T08:16:09;100140.14;;;13.86;55.75
73566;BME280;61846;52.970;-3.168;2024-03-17T08:18:34;100139.28;;;14.34;55.24
73566;BME280;61846;52.970;-3.168;2024-03-17T08:21:01;100142.02;;;14.38;55.19
73566;BME280;61846;52.970;-3.168;2024-03-17T08:23:25;100143.50;;;14.42;55.59
73566;BME280;61846;52.970;-3.168;2024-03-17T08:25:52;100137.50;;;15.27;52.98
73566;BME280;61846;52.970;-3.168;2024-03-17T08:28:16;100141.49;;;15.39;52.08
73566;BME280;61846;52.970;-3.168;2024-03-17T08:30:42;100142.99;;;15.35;51.70
73566;BME280;61846;52.970;-3.168;2024-03-17T08:33:07;100143.92;;;16.15;51.12
73566;BME280;61846;52.970;-3.168;2024-03-17T08:35:32;100140.81;;;16.08;50.40
73566;BME280;61846;52.970;-3.168;2024-03-17T08:37:58;100146.66;;;15.72;51.85
73566;BME280;61846;52.970;-3.168;2024-03-17T08:40:23;100150.74;;;15.48;52.46
73566;BME280;61846;52.970;-3.168;2024-03-17T08:42:49;100150.48;;;15.44;50.95
73566;BME280;61846;52.970;-3.168;2024-03-17T08:45:14;100153.76;;;16.04;49.80
73566;BME280;61846;52.970;-3.168;2024-03-17T08:47:40;100154.10;;;16.34;49.92
73566;BME280;61846;52.970;-3.168;2024-03-17T08:50:06;100154.76;;;16.43;50.11
73566;BME280;61846;52.970;-3.168;2024-03-17T08:52:30;100156.89;;;16.73;50.90
73566;BME280;61846;52.970;-3.168;2024-03-17T08:54:56;100153.95;;;16.87;48.54
73566;BME280;61846;52.970;-3.168;2024-03-17T08:57:21;100156.63;;;16.66;48.07
73566;BME280;61846;52.970;-3.168;2024-03-17T08:59:47;100153.85;;;17.34;46.50
73566;BME280;61846;52.970;-3.168;2024-03-17T09:02:13;100149.80;;;17.05;46.89
73566;BME280;61846;52.970;-3.168;2024-03-17T09:04:38;100151.39;;;17.09;47.36
73566;BME280;61846;52.970;-3.168;2024-03-17T09:07:03;100152.57;;;16.95;47.22
73566;BME280;61846;52.970;-3.168;2024-03-17T09:09:28;100153.40;;;17.31;47.32
73566;BME280;61846;52.970;-3.168;2024-03-17T09:11:54;100155.55;;;17.46;47.28
73566;BME280;61846;52.970;-3.168;2024-03-17T09:14:19;100156.97;;;17.04;47.62
73566;BME280;61846;52.970;-3.168;2024-03-17T09:16:45;100157.76;;;16.43;47.98
73566;BME280;61846;52.970;-3.168;2024-03-17T09:19:10;100155.50;;;16.98;47.90
73566;BME280;61846;52.970;-3.168;2024-03-17T09:21:35;100153.42;;;17.19;47.08
73566;BME280;61846;52.970;-3.168;2024-03-17T09:24:01;100160.87;;;16.41;47.97
73566;BME280;61846;52.970;-3.168;2024-03-17T09:26:26;100158.01;;;16.28;48.47
73566;BME280;61846;52.970;-3.168;2024-03-17T09:28:52;100159.51;;;16.05;49.00
73566;BME280;61846;52.970;-3.168;2024-03-17T09:31:17;100160.15;;;16.85;46.99
73566;BME280;61846;52.970;-3.168;2024-03-17T09:33:42;100157.40;;;16.88;46.83
73566;BME280;61846;52.970;-3.168;2024-03-17T09:36:09;100151.54;;;16.79;47.90
73566;BME280;61846;52.970;-3.168;2024-03-17T09:38:34;100151.04;;;16.08;48.15
73566;BME280;61846;52.970;-3.168;2024-03-17T09:40:59;100150.90;;;17.06;46.90
73566;BME280;61846;52.970;-3.168;2024-03-17T09:43:25;100152.88;;;16.93;47.05
73566;BME280;61846;52.970;-3.168;2024-03-17T09:45:50;100152.50;;;17.02;46.72
73566;BME280;61846;52.970;-3.168;2024-03-17T09:48:16;100148.08;;;16.29;47.13
73566;BME280;61846;52.970;-3.168;2024-03-17T09:50:41;100146.41;;;16.56;47.36
73566;BME280;61846;52.970;-3.168;2024-03-17T09:53:06;100152.89;;;14.35;52.54
73566;BME280;61846;52.970;-3.168;2024-03-17T09:55:31;100149.08;;;15.96;49.50
73566;BME280;61846;52.970;-3.168;2024-03-17T09:57:57;100150.72;;;15.19;51.44
73566;BME280;61846;52.970;-3.168;2024-03-17T10:00:22;100152.47;;;14.30;54.28
73566;BME280;61846;52.970;-3.168;2024-03-17T10:02:48;100151.50;;;12.22;60.36
73566;BME280;61846;52.970;-3.168;2024-03-17T10:05:19;100151.62;;;12.11;60.00
73566;BME280;61846;52.970;-3.168;2024-03-17T10:07:38;100148.63;;;13.19;58.23
73566;BME280;61846;52.970;-3.168;2024-03-17T10:10:12;100143.97;;;12.50;59.91
73566;BME280;61846;52.970;-3.168;2024-03-17T10:12:29;100141.13;;;14.66;55.04
73566;BME280;61846;52.970;-3.168;2024-03-17T10:14:58;100137.38;;;14.72;54.28
73566;BME280;61846;52.970;-3.168;2024-03-17T10:17:29;100142.02;;;13.88;55.83
73566;BME280;61846;52.970;-3.168;2024-03-17T10:19:46;100137.09;;;14.95;53.68
73566;BME280;61846;52.970;-3.168;2024-03-17T10:22:12;100133.44;;;15.45;51.24
73566;BME280;61846;52.970;-3.168;2024-03-17T10:24:36;100131.80;;;15.09;53.37
73566;BME280;61846;52.970;-3.168;2024-03-17T10:27:02;100134.09;;;14.96;53.86
73566;BME280;61846;52.970;-3.168;2024-03-17T10:29:29;100129.91;;;14.77;54.75
73566;BME280;61846;52.970;-3.168;2024-03-17T10:31:53;100130.04;;;14.30;56.19
73566;BME280;61846;52.970;-3.168;2024-03-17T10:34:18;100124.84;;;13.42;59.16
73566;BME280;61846;52.970;-3.168;2024-03-17T10:36:44;100122.31;;;13.79;57.91
73566;BME280;61846;52.970;-3.168;2024-03-17T10:39:22;100113.68;;;15.53;55.04
73566;BME280;61846;52.970;-3.168;2024-03-17T10:41:34;100119.64;;;14.14;58.10
73566;BME280;61846;52.970;-3.168;2024-03-17T10:44:00;100113.30;;;14.77;57.00
73566;BME280;61846;52.970;-3.168;2024-03-17T10:46:26;100111.49;;;15.91;56.13
73566;BME280;61846;52.970;-3.168;2024-03-17T10:48:52;100112.42;;;15.39;56.45
73566;BME280;61846;52.970;-3.168;2024-03-17T10:51:17;100128.30;;;13.99;58.40
73566;BME280;61846;52.970;-3.168;2024-03-17T10:53:43;100129.72;;;15.55;54.05
73566;BME280;61846;52.970;-3.168;2024-03-17T10:56:08;100129.46;;;13.30;58.85
73566;BME280;61846;52.970;-3.168;2024-03-17T10:58:34;100132.78;;;12.96;60.09
73566;BME280;61846;52.970;-3.168;2024-03-17T11:00:58;100129.64;;;13.39;59.79
73566;BME280;61846;52.970;-3.168;2024-03-17T11:03:23;100121.42;;;15.13;56.70
73566;BME280;61846;52.970;-3.168;2024-03-17T11:05:49;100120.02;;;14.59;56.38
73566;BME280;61846;52.970;-3.168;2024-03-17T11:08:16;100131.13;;;15.09;57.07
73566;BME280;61846;52.970;-3.168;2024-03-17T11:10:48;100120.09;;;15.85;53.99
73566;BME280;61846;52.970;-3.168;2024-03-17T11:13:05;100122.76;;;15.50;54.64
73566;BME280;61846;52.970;-3.168;2024-03-17T11:15:38;100132.21;;;14.50;58.14
73566;BME280;61846;52.970;-3.168;2024-03-17T11:20:23;100120.48;;;16.04;55.00
73566;BME280;61846;52.970;-3.168;2024-03-17T11:22:49;100123.47;;;15.50;53.16
73566;BME280;61846;52.970;-3.168;2024-03-17T11:27:41;100127.13;;;16.10;53.57
73566;BME280;61846;52.970;-3.168;2024-03-17T11:32:33;100134.79;;;17.91;50.05
73566;BME280;61846;52.970;-3.168;2024-03-17T11:39:51;100133.69;;;18.32;46.64
73566;BME280;61846;52.970;-3.168;2024-03-17T11:42:13;100136.38;;;18.31;47.89
73566;BME280;61846;52.970;-3.168;2024-03-17T11:44:35;100135.92;;;17.70;45.35
73566;BME280;61846;52.970;-3.168;2024-03-17T11:47:01;100137.10;;;16.40;46.64
73566;BME280;61846;52.970;-3.168;2024-03-17T11:49:27;100135.95;;;17.59;46.85
73566;BME280;61846;52.970;-3.168;2024-03-17T11:51:52;100141.03;;;18.20;45.34
73566;BME280;61846;52.970;-3.168;2024-03-17T11:54:18;100140.08;;;16.82;45.93
73566;BME280;61846;52.970;-3.168;2024-03-17T11:56:42;100132.98;;;18.28;44.42
73566;BME280;61846;52.970;-3.168;2024-03-17T11:59:07;100130.47;;;19.07;42.91
73566;BME280;61846;52.970;-3.168;2024-03-17T12:01:33;100128.73;;;18.95;42.22
73566;BME280;61846;52.970;-3.168;2024-03-17T12:03:58;100134.37;;;18.85;42.62
73566;BME280;61846;52.970;-3.168;2024-03-17T12:06:24;100136.01;;;18.71;42.70
73566;BME280;61846;52.970;-3.168;2024-03-17T12:08:49;100137.13;;;18.63;41.74
73566;BME280;61846;52.970;-3.168;2024-03-17T12:11:17;100126.12;;;19.19;41.12
73566;BME280;61846;52.970;-3.168;2024-03-17T12:13:39;100116.06;;;19.06;40.57
73566;BME280;61846;52.970;-3.168;2024-03-17T12:16:11;100126.28;;;17.03;46.00
73566;BME280;61846;52.970;-3.168;2024-03-17T12:18:30;100123.94;;;18.36;42.83
73566;BME280;61846;52.970;-3.168;2024-03-17T12:20:55;100111.00;;;17.41;42.84
73566;BME280;61846;52.970;-3.168;2024-03-17T12:23:21;100119.51;;;16.81;44.53
73566;BME280;61846;52.970;-3.168;2024-03-17T12:25:47;100113.15;;;15.81;45.77
73566;BME280;61846;52.970;-3.168;2024-03-17T12:28:16;100115.37;;;15.57;46.51
73566;BME280;61846;52.970;-3.168;2024-03-17T12:30:37;100122.13;;;14.25;51.73
73566;BME280;61846;52.970;-3.168;2024-03-17T12:33:02;100118.31;;;15.41;49.04
73566;BME280;61846;52.970;-3.168;2024-03-17T12:35:28;100113.65;;;16.07;46.87
73566;BME280;61846;52.970;-3.168;2024-03-17T12:37:53;100106.95;;;16.07;45.74
73566;BME280;61846;52.970;-3.168;2024-03-17T12:40:20;100091.39;;;16.19;47.42
73566;BME280;61846;52.970;-3.168;2024-03-17T12:42:48;100104.60;;;14.95;49.73